This is the latest recevied weather packets stored in our database for station/object WV5G-13. If no packets are shown the sender has not sent any weather packets the latest 10 day(s).
| Time | Temp. | Humidity | Pressure | Rain* | Wind** | Luminosity | Snow |
|---|---|---|---|---|---|---|---|
| 1777943697 | 26.67° C | 13% | 1001.1 hPa | 0 mm | - | 12 W/m² | - |
| 1777943394 | 26.67° C | 13% | 1001.1 hPa | 0 mm | - | 17 W/m² | - |
| 1777943090 | 27.22° C | 14% | 1000.9 hPa | 0 mm | - | 21 W/m² | - |
| 1777942786 | 27.22° C | 13% | 1001 hPa | 0 mm | - | 26 W/m² | - |
| 1777942483 | 27.22° C | 13% | 1001.1 hPa | 0 mm | - | 34 W/m² | - |
| 1777942181 | 27.78° C | 13% | 1001.1 hPa | 0 mm | - | 40 W/m² | - |
| 1777941877 | 27.78° C | 13% | 1001 hPa | 0 mm | - | 47 W/m² | - |
| 1777941574 | 27.78° C | 13% | 1001.1 hPa | 0 mm | - | 52 W/m² | - |
| 1777941271 | 27.78° C | 13% | 1001.2 hPa | 0 mm | - | 58 W/m² | - |
| 1777940967 | 27.78° C | 13% | 1001.1 hPa | 0 mm | - | 66 W/m² | - |
| 1777940664 | 27.78° C | 12% | 1001.3 hPa | 0 mm | - | 68 W/m² | - |
| 1777940362 | 28.33° C | 12% | 1001.4 hPa | 0 mm | - | 78 W/m² | - |
| 1777940059 | 28.33° C | 12% | 1001.4 hPa | 0 mm | - | 88 W/m² | - |
| 1777939756 | 28.33° C | 12% | 1001.4 hPa | 0 mm | - | 95 W/m² | - |
| 1777939455 | 28.33° C | 13% | 1001.4 hPa | 0 mm | - | 100 W/m² | - |
| 1777939151 | 28.33° C | 13% | 1001.3 hPa | 0 mm | - | 108 W/m² | - |
| 1777938848 | 28.33° C | 19% | 1001.4 hPa | 0 mm | - | 108 W/m² | - |
| 1777938544 | 28.33° C | 19% | 1001.4 hPa | 0 mm | - | 114 W/m² | - |
| 1777938242 | 28.89° C | 19% | 1001.3 hPa | 0 mm | - | 126 W/m² | - |
| 1777937938 | 28.89° C | 17% | 1001.4 hPa | 0 mm | - | 135 W/m² | - |
| 1777937634 | 28.89° C | 18% | 1001.6 hPa | 0 mm | - | 140 W/m² | - |
| 1777937330 | 28.89° C | 19% | 1001.3 hPa | 0 mm | - | 161 W/m² | - |
| 1777937028 | 28.33° C | 20% | 1001.3 hPa | 0 mm | - | 178 W/m² | - |
| 1777936724 | 28.89° C | 21% | 1001.4 hPa | 0 mm | - | 186 W/m² | - |
| 1777936421 | 28.89° C | 22% | 1001.4 hPa | 0 mm | - | 191 W/m² | - |
* Rain latest hour (hover to see other rain measurements)
** Current wind speed in m/s (hover to see current wind gust speed)